METAR Data
IDs: Format: Raw Decoded Include TAF

Data at: 1625 UTC 19 Sep 2018

KBQP 191615Z AUTO 00000KT 10SM CLR 34/21 A3000 RMK AO2 T03430211
KBQP 191555Z AUTO 00000KT 10SM CLR 34/22 A3000 RMK AO2 T03350217
KBQP 191535Z AUTO 00000KT 10SM CLR 33/22 A3000 RMK AO2 T03270220
KBQP 191515Z AUTO 09003KT 10SM CLR 32/22 A3000 RMK AO2 T03210222
KBQP 191455Z AUTO 00000KT 10SM CLR 31/23 A3000 RMK AO2 T03110227
KBQP 191435Z AUTO 00000KT 10SM CLR 30/24 A2999 RMK AO2 T03010235
KBQP 191415Z AUTO 00000KT 10SM CLR 29/23 A2999 RMK AO2 T02930233
KBQP 191355Z AUTO 00000KT 10SM CLR 28/23 A2999 RMK AO2 T02790233
KBQP 191335Z AUTO 00000KT 10SM CLR 27/24 A2999 RMK AO2 T02660235
KBQP 191315Z AUTO 00000KT 10SM CLR 26/24 A2998 RMK AO2 T02550242
KBQP 191255Z AUTO 00000KT 10SM CLR 24/23 A2998 RMK AO2 T02380234
KBQP 191235Z AUTO 00000KT 10SM CLR 22/22 A2997 RMK AO2 T02240221
KBQP 191215Z AUTO 00000KT 7SM CLR 22/21 A2997 RMK AO2 T02160213
KBQP 191155Z AUTO 00000KT 10SM CLR 22/22 A2997 RMK AO2 T02190215 10235 20216
KBQP 191135Z AUTO 00000KT 10SM CLR 22/22 A2997 RMK AO2 T02190215
KBQP 191115Z AUTO 00000KT 10SM CLR 22/21 A2996 RMK AO2 T02170214
KBQP 191055Z AUTO 00000KT 10SM CLR 22/22 A2995 RMK AO2 T02180215
KBQP 191035Z AUTO 00000KT 10SM CLR 22/22 A2994 RMK AO2 T02200216
KBQP 191015Z AUTO 00000KT 10SM CLR 22/22 A2994 RMK AO2 T02210217
KBQP 190955Z AUTO 00000KT 10SM CLR 22/22 A2994 RMK AO2 T02170215
KBQP 190935Z AUTO 00000KT 10SM CLR 22/22 A2993 RMK AO2 T02210217
KBQP 190915Z AUTO 00000KT 10SM CLR 22/22 A2993 RMK AO2 T02210218
KBQP 190855Z AUTO 00000KT 10SM CLR 23/22 A2993 RMK AO2 T02250222
KBQP 190835Z AUTO 00000KT 10SM CLR 22/22 A2993 RMK AO2 T02200217
KBQP 190815Z AUTO 00000KT 10SM CLR 22/22 A2993 RMK AO2 T02230220
KBQP 190755Z AUTO 00000KT 10SM CLR 23/23 A2993 RMK AO2 T02300226
KBQP 190735Z AUTO 00000KT 10SM CLR 23/23 A2993 RMK AO2 T02290225
KBQP 190715Z AUTO 00000KT 10SM CLR 23/23 A2994 RMK AO2 T02290225
KBQP 190655Z AUTO 00000KT 10SM CLR 23/22 A2994 RMK AO2 T02250222
KBQP 190635Z AUTO 00000KT 10SM CLR 23/22 A2994 RMK AO2 T02270224
KBQP 190615Z AUTO 00000KT 10SM CLR 23/23 A2994 RMK AO2 T02330228
KBQP 190555Z AUTO 00000KT 7SM CLR 23/23 A2994 RMK AO2 T02290225 10306 20228 403690212
KBQP 190535Z AUTO 00000KT 10SM CLR 23/23 A2994 RMK AO2 T02300226
KBQP 190515Z AUTO 00000KT 10SM CLR 23/23 A2994 RMK AO2 T02300227
KBQP 190455Z AUTO 00000KT 10SM CLR 24/22 A2994 RMK AO2 T02390220
KBQP 190435Z AUTO 00000KT 10SM CLR 24/22 A2994 RMK AO2 T02380220
KBQP 190415Z AUTO 00000KT 10SM CLR 24/21 A2994 RMK AO2 T02420213
KBQP 190355Z AUTO 00000KT 10SM CLR 25/21 A2994 RMK AO2 T02450210
KBQP 190335Z AUTO 12003KT 10SM CLR 25/21 A2994 RMK AO2 T02480211
KBQP 190315Z AUTO 00000KT 10SM CLR 25/21 A2994 RMK AO2 T02530205
KBQP 190255Z AUTO 00000KT 10SM CLR 25/22 A2994 RMK AO2 T02460220
KBQP 190235Z AUTO 00000KT 10SM CLR 25/21 A2994 RMK AO2 T02490214
KBQP 190215Z AUTO 00000KT 10SM CLR 26/21 A2993 RMK AO2 T02550214
KBQP 190155Z AUTO 00000KT 10SM CLR 25/21 A2993 RMK AO2 T02510214
KBQP 190135Z AUTO 00000KT 10SM CLR 26/21 A2992 RMK AO2 T02630210
KBQP 190115Z AUTO 00000KT 10SM CLR 26/21 A2991 RMK AO2 T02620212
KBQP 190055Z AUTO 00000KT 10SM CLR 27/21 A2990 RMK AO2 T02730211
KBQP 190035Z AUTO 00000KT 10SM CLR 29/21 A2990 RMK AO2 T02850212
KBQP 190015Z AUTO 00000KT 10SM CLR 30/21 A2990 RMK AO2 T02950212
KBQP 182355Z AUTO 00000KT 10SM CLR 31/22 A2990 RMK AO2 T03070215 10369 20307
KBQP 182335Z AUTO 00000KT 10SM CLR 33/22 A2990 RMK AO2 T03250219
KBQP 182315Z AUTO 00000KT 10SM SCT002 34/21 A2989 RMK AO2 T03400207
KBQP 182255Z AUTO 08003KT 10SM CLR 35/20 A2989 RMK AO2 T03510195
KBQP 182235Z AUTO 00000KT 10SM SCT075 SCT090 35/19 A2990 RMK AO2 T03490194
KBQP 182215Z AUTO 00000KT 10SM BKN075 OVC085 35/19 A2990 RMK AO2 T03510191
KBQP 182155Z AUTO 06005KT 10SM OVC075 37/19 A2990 RMK AO2 T03650193
KBQP 182135Z AUTO 06004KT 10SM SCT070 37/20 A2990 RMK AO2 T03650195
KBQP 182115Z AUTO 06003KT 10SM SCT070 SCT085 35/19 A2990 RMK AO2 T03480191
KBQP 182055Z AUTO 09003KT 10SM SCT070 SCT085 SCT110 37/19 A2990 RMK AO2 T03650194
KBQP 182035Z AUTO 00000KT 10SM SCT085 SCT120 36/19 A2991 RMK AO2 T03620193
KBQP 182015Z AUTO 11003KT 10SM SCT085 SCT120 36/20 A2991 RMK AO2 T03570199
KBQP 181955Z AUTO 06003KT 10SM BKN065 BKN085 35/19 A2991 RMK AO2 T03450194
KBQP 181935Z AUTO 11004KT 10SM BKN070 37/20 A2992 RMK AO2 T03680196
KBQP 181915Z AUTO 24003KT 10SM SCT060 36/20 A2993 RMK AO2 T03620195
KBQP 181855Z AUTO 00000KT 10SM BKN060 OVC090 35/20 A2994 RMK AO2 T03470195
KBQP 181835Z AUTO 21003KT 10SM BKN060 BKN090 35/20 A2994 RMK AO2 T03540201
KBQP 181815Z AUTO 00000KT 10SM SCT060 35/19 A2996 RMK AO2 T03520194
KBQP 181755Z AUTO 26003KT 10SM SCT060 36/21 A2997 RMK AO2 T03590206 10359 20214
KBQP 181735Z AUTO 26006KT 10SM CLR 35/21 A2997 RMK AO2 T03480209
KBQP 181715Z AUTO 25004KT 10SM SCT055 35/20 A2998 RMK AO2 T03470198
KBQP 181655Z AUTO 00000KT 10SM SCT050 34/21 A2999 RMK AO2 T03400207
KBQP 181635Z AUTO 27005KT 10SM BKN050 34/21 A2999 RMK AO2 T03440206
KBQP 181615Z AUTO 00000KT 10SM CLR 33/20 A3000 RMK AO2 T03310203
KBQP 181555Z AUTO 00000KT 10SM CLR 34/21 A3000 RMK AO2 T03370208
KBQP 181535Z AUTO 00000KT 10SM CLR 33/21 A3000 RMK AO2 T03340210
KBQP 181515Z AUTO 00000KT 10SM CLR 33/22 A3000 RMK AO2 T03260215
KBQP 181455Z AUTO 00000KT 10SM CLR 32/22 A3000 RMK AO2 T03210222
KBQP 181435Z AUTO 00000KT 10SM CLR 31/22 A3000 RMK AO2 T03100218
KBQP 181415Z AUTO 00000KT 10SM CLR 30/22 A3000 RMK AO2 T03020220
KBQP 181355Z AUTO 00000KT 10SM CLR 29/22 A3000 RMK AO2 T02860224
KBQP 181335Z AUTO 00000KT 10SM CLR 27/24 A3000 RMK AO2 T02680243
KBQP 181315Z AUTO 00000KT 10SM CLR 25/25 A3000 RMK AO2 T02500246
KBQP 181255Z AUTO 00000KT 10SM CLR 23/23 A3000 RMK AO2 T02320229
KBQP 181235Z AUTO 00000KT 10SM CLR 22/22 A3000 RMK AO2 T02210219
KBQP 181215Z AUTO 00000KT 10SM CLR 22/21 A2999 RMK AO2 T02160212
KBQP 181155Z AUTO 00000KT 10SM CLR 22/21 A2999 RMK AO2 T02150211 10233 20212
KBQP 181135Z AUTO 00000KT 10SM CLR 21/21 A2999 RMK AO2 T02130210
KBQP 181115Z AUTO 00000KT 10SM CLR 22/21 A2998 RMK AO2 T02150211
KBQP 181055Z AUTO 00000KT 10SM CLR 22/21 A2998 RMK AO2 T02150211
KBQP 181035Z AUTO 00000KT 10SM CLR 22/21 A2998 RMK AO2 T02160212
KBQP 181015Z AUTO 00000KT 10SM CLR 22/21 A2997 RMK AO2 T02160213
KBQP 180955Z AUTO 00000KT 10SM CLR 22/22 A2997 RMK AO2 T02180215
KBQP 180935Z AUTO 00000KT 10SM CLR 22/22 A2997 RMK AO2 T02170215
KBQP 180915Z AUTO 00000KT 10SM CLR 22/22 A2997 RMK AO2 T02200217
KBQP 180855Z AUTO 00000KT 10SM CLR 22/22 A2997 RMK AO2 T02200217
KBQP 180835Z AUTO 00000KT 10SM CLR 22/22 A2997 RMK AO2 T02220219
KBQP 180815Z AUTO 00000KT 10SM CLR 22/22 A2997 RMK AO2 T02230220
KBQP 180755Z AUTO 00000KT 10SM CLR 23/22 A2997 RMK AO2 T02260223
KBQP 180735Z AUTO 00000KT 10SM CLR 23/22 A2997 RMK AO2 T02250222
KBQP 180715Z AUTO 00000KT 10SM CLR 23/22 A2997 RMK AO2 T02270223
KBQP 180655Z AUTO 00000KT 10SM CLR 23/22 A2997 RMK AO2 T02280224
KBQP 180635Z AUTO 00000KT 10SM CLR 23/23 A2997 RMK AO2 T02300226
KBQP 180615Z AUTO 00000KT 10SM CLR 23/23 A2997 RMK AO2 T02330230
KBQP 180555Z AUTO 00000KT 10SM CLR 23/23 A2997 RMK AO2 T02310228 10301 20231 403670206
KBQP 180535Z AUTO 00000KT 10SM CLR 24/23 A2997 RMK AO2 T02350231
KBQP 180515Z AUTO 00000KT 10SM CLR 23/23 A2997 RMK AO2 T02340230
KBQP 180455Z AUTO 00000KT 10SM CLR 24/23 A2997 RMK AO2 T02370233
KBQP 180435Z AUTO 00000KT 10SM CLR 24/23 A2997 RMK AO2 T02370234